Terminal Aerodrome Forecast
Issued by NWS Cleveland, OH

Home | Current Version | Previous Version | Graphics & Text | Print | Product List | Glossary On
Versions: 1 2 3 4 5 6 7 8 9 10 11 12 13 14 15 16 17 18 19 20
000
FTUS41 KCLE 200500
TAFTOL
TAF
KTOL 200534Z 2006/2106 25015G25KT P6SM -SHSN OVC035
     FM201100 25012G20KT P6SM BKN035
     FM201600 26020G30KT P6SM OVC050
     FM210000 27012G20KT P6SM SCT050=

USA.gov is the U.S. government's official web portal to all federal, state and local government web resources and services.